Time;durP1;ratioP1;P1;durP2;ratioP2;P2;SDS_P1;SDS_P2;PMS_P1;PMS_P2;Temp;Humidity;BMP_temperature;BMP_pressure;BME280_temperature;BME280_humidity;BME280_pressure;Samples;Min_cycle;Max_cycle;Signal;HPM_P1;HPM_P2
2022/08/29 00:01:44;;;;;;;24.10;16.58;;;15.80;99.90;;;16.55;99.24;98736.38;5020198;28;121923;-71
2022/08/29 00:04:13;;;;;;;27.65;16.38;;;15.70;99.90;;;16.56;99.19;98737.16;5021437;28;129964;-71
2022/08/29 00:06:42;;;;;;;23.25;15.68;;;15.70;99.90;;;16.50;99.42;98734.75;5018921;27;129852;-71
2022/08/29 00:09:10;;;;;;;25.40;16.10;;;15.60;99.90;;;16.40;100.00;98740.06;5000725;28;119562;-71
2022/08/29 00:11:39;;;;;;;25.63;15.85;;;15.60;99.90;;;16.36;100.00;98737.25;5001584;28;119883;-71
2022/08/29 00:14:09;;;;;;;22.95;15.85;;;15.60;99.90;;;16.41;100.00;98742.44;5000985;28;130048;-71
2022/08/29 00:16:38;;;;;;;25.95;15.95;;;15.50;99.90;;;16.42;99.50;98743.22;5001173;28;129467;-71
2022/08/29 00:19:06;;;;;;;25.33;16.05;;;15.50;99.90;;;16.39;99.71;98747.47;5001269;28;119689;-70
2022/08/29 00:21:35;;;;;;;25.33;16.38;;;15.40;99.90;;;16.37;100.00;98747.06;5001120;28;119926;-71
2022/08/29 00:24:04;;;;;;;26.20;15.88;;;15.40;99.90;;;16.35;99.51;98743.91;4999571;28;129972;-70
2022/08/29 00:26:34;;;;;;;23.60;15.45;;;15.40;99.90;;;16.24;100.00;98737.50;5000834;28;129767;-71
2022/08/29 00:29:03;;;;;;;26.25;17.20;;;15.30;99.90;;;16.14;100.00;98739.69;4999996;28;120314;-71
2022/08/29 00:31:33;;;;;;;25.20;16.00;;;15.20;99.90;;;16.03;100.00;98738.72;5001141;28;120021;-71
2022/08/29 00:34:02;;;;;;;24.15;16.75;;;15.20;99.90;;;16.04;100.00;98740.31;4999379;28;129972;-70
2022/08/29 00:36:30;;;;;;;23.80;15.43;;;15.20;99.90;;;15.97;100.00;98730.03;5002248;28;129683;-71
2022/08/29 00:38:59;;;;;;;24.70;16.33;;;15.10;99.90;;;15.92;100.00;98732.28;5001057;28;120201;-70
2022/08/29 00:41:27;;;;;;;29.83;16.20;;;15.10;99.90;;;15.88;100.00;98734.97;5001131;28;119425;-70
2022/08/29 00:43:56;;;;;;;23.17;15.95;;;15.10;99.90;;;15.88;100.00;98737.72;5000417;28;130067;-70
2022/08/29 00:46:51;;;;;;;24.17;15.95;;;15.10;99.90;;;15.91;100.00;98736.16;5000698;28;129582;-71
2022/08/29 00:49:38;;;;;;;27.50;16.70;;;15.10;99.90;;;15.94;100.00;98736.25;4999527;28;122893;-70
2022/08/29 00:52:13;;;;;;;26.80;15.55;;;15.00;99.90;;;15.96;100.00;98736.66;5003066;28;121746;-72
2022/08/29 00:54:43;;;;;;;22.90;15.68;;;15.00;99.90;;;15.85;100.00;98737.63;5000607;28;130242;-71
2022/08/29 00:57:13;;;;;;;24.02;16.17;;;14.90;99.90;;;15.72;100.00;98735.06;5000205;28;129604;-71
2022/08/29 00:59:42;;;;;;;23.50;15.65;;;14.80;99.90;;;15.73;100.00;98736.63;5001253;28;120050;-72
2022/08/29 01:02:13;;;;;;;23.30;15.52;;;14.80;99.90;;;15.75;100.00;98734.34;5015949;27;119530;-71
2022/08/29 01:04:41;;;;;;;25.88;16.27;;;14.80;99.90;;;15.74;100.00;98738.22;5002183;28;130131;-71
2022/08/29 01:07:11;;;;;;;21.83;15.73;;;14.70;99.90;;;15.60;100.00;98738.75;5002451;28;129101;-71
2022/08/29 01:09:45;;;;;;;25.38;16.08;;;14.70;99.90;;;15.44;100.00;98736.13;5000907;28;119599;-71
2022/08/29 01:12:17;;;;;;;26.55;16.58;;;14.60;99.90;;;15.40;100.00;98729.81;5000420;28;120201;-71
2022/08/29 01:14:51;;;;;;;22.80;15.85;;;14.60;99.90;;;15.45;100.00;98737.69;4999015;28;131474;-71
2022/08/29 01:17:26;;;;;;;25.17;16.30;;;14.60;99.90;;;15.43;100.00;98740.00;4999925;28;130356;-71
2022/08/29 01:20:00;;;;;;;20.17;15.02;;;14.50;99.90;;;15.42;100.00;98732.94;5001917;28;119160;-71
2022/08/29 01:22:55;;;;;;;26.58;16.63;;;14.50;99.90;;;15.41;100.00;98730.59;5000205;28;120259;-71
2022/08/29 01:25:32;;;;;;;26.90;15.15;;;14.50;99.90;;;15.44;100.00;98717.00;4999885;28;130488;-70
2022/08/29 01:28:07;;;;;;;21.63;15.60;;;14.50;99.90;;;15.42;100.00;98726.69;4999538;28;130134;-71
2022/08/29 01:30:36;;;;;;;28.65;16.33;;;14.50;99.90;;;15.39;100.00;98727.44;4999958;28;120590;-71
2022/08/29 01:33:05;;;;;;;23.65;14.90;;;14.50;99.90;;;15.40;100.00;98729.03;5000938;28;120027;-71
2022/08/29 01:35:34;;;;;;;24.90;16.13;;;14.50;99.90;;;15.42;100.00;98732.94;4999815;28;129997;-72
2022/08/29 01:38:02;;;;;;;25.02;15.65;;;14.50;99.90;;;15.42;100.00;98732.19;5001494;28;129283;-72
2022/08/29 01:40:35;;;;;;;25.50;16.98;;;14.50;99.90;;;15.44;100.00;98727.94;4999571;28;121851;-72
2022/08/29 01:43:04;;;;;;;22.10;15.43;;;14.40;99.90;;;15.36;100.00;98726.19;4999817;28;122180;-72
2022/08/29 01:45:33;;;;;;;23.48;16.95;;;14.40;99.90;;;15.25;100.00;98733.41;4999491;28;130919;-71
2022/08/29 01:48:02;;;;;;;23.10;15.25;;;14.40;99.90;;;15.24;100.00;98731.84;4999490;28;129574;-72
2022/08/29 01:50:32;;;;;;;21.00;15.27;;;14.40;99.90;;;15.24;100.00;98729.91;4999928;28;120121;-72
2022/08/29 01:53:01;;;;;;;24.60;16.10;;;14.40;99.90;;;15.22;100.00;98728.66;4998730;28;119611;-71
2022/08/29 01:55:31;;;;;;;27.33;16.48;;;14.40;99.90;;;15.23;100.00;98735.72;4999372;28;129938;-72
2022/08/29 01:57:59;;;;;;;26.70;16.65;;;14.40;99.90;;;15.27;100.00;98725.66;4999616;28;129737;-72
2022/08/29 02:00:28;;;;;;;23.85;16.30;;;14.40;99.90;;;15.29;100.00;98731.56;5001577;28;119643;-72
2022/08/29 02:02:59;;;;;;;23.30;15.45;;;14.40;99.90;;;15.32;100.00;98732.75;4999692;28;119493;-72
2022/08/29 02:05:29;;;;;;;25.35;15.70;;;14.40;99.90;;;15.23;100.00;98730.25;4998074;28;130111;-71
2022/08/29 02:07:57;;;;;;;24.10;16.35;;;14.30;99.90;;;15.06;100.00;98726.81;4999336;28;129474;-73
2022/08/29 02:10:26;;;;;;;23.17;15.70;;;14.20;99.90;;;14.99;100.00;98732.16;5001883;28;119104;-71
2022/08/29 02:12:57;;;;;;;25.85;16.70;;;14.10;99.90;;;14.91;100.00;98725.75;4999659;28;119248;-72
2022/08/29 02:15:25;;;;;;;28.58;15.90;;;14.10;99.90;;;14.79;100.00;98717.69;4999187;28;129938;-72
2022/08/29 02:17:54;;;;;;;25.88;16.35;;;14.00;99.90;;;14.76;100.00;98720.31;4999297;28;129805;-72
2022/08/29 02:20:22;;;;;;;28.60;16.33;;;14.10;99.90;;;14.77;100.00;98719.19;4999556;28;119453;-72
2022/08/29 02:22:51;;;;;;;24.45;16.10;;;14.10;99.90;;;14.80;100.00;98723.94;4999652;28;119585;-72
2022/08/29 02:28:08;;;;;;;21.07;16.03;;;14.10;99.90;;;14.92;100.00;98732.00;4999347;28;129788;-71
2022/08/29 02:30:36;;;;;;;25.52;16.63;;;14.10;99.90;;;14.91;100.00;98730.41;4997392;28;122154;-72
2022/08/29 02:33:06;;;;;;;22.42;16.58;;;14.10;99.90;;;14.87;100.00;98730.34;5004889;28;121828;-72
2022/08/29 02:35:35;;;;;;;24.60;16.52;;;14.10;99.90;;;14.90;100.00;98734.31;5002469;28;130267;-71
2022/08/29 02:38:04;;;;;;;25.95;18.00;;;14.10;99.90;;;14.90;100.00;98734.31;5002578;28;130604;-72
2022/08/29 02:40:33;;;;;;;21.52;16.48;;;14.10;99.90;;;14.87;100.00;98735.03;5002820;28;120107;-71
2022/08/29 02:43:03;;;;;;;22.27;15.88;;;14.10;99.90;;;14.88;100.00;98736.59;5002662;28;119533;-70
2022/08/29 02:45:36;;;;;;;26.35;16.40;;;14.00;99.90;;;14.90;100.00;98734.31;5002791;28;130162;-71
2022/08/29 02:48:05;;;;;;;24.02;16.45;;;14.00;99.90;;;14.89;100.00;98738.16;5002845;28;130300;-72
2022/08/29 02:50:34;;;;;;;25.20;17.92;;;14.00;99.90;;;14.74;100.00;98737.88;5002780;28;120504;-71
2022/08/29 02:53:03;;;;;;;27.67;18.17;;;13.90;99.90;;;14.60;100.00;98742.19;5002800;28;120259;-72
2022/08/29 02:55:32;;;;;;;26.42;17.00;;;13.90;99.90;;;14.55;100.00;98740.53;5001000;28;129599;-71
2022/08/29 02:58:01;;;;;;;22.45;15.38;;;13.80;99.90;;;14.62;100.00;98751.66;5000818;28;129331;-71
2022/08/29 03:00:29;;;;;;;22.63;15.48;;;13.80;99.90;;;14.66;100.00;98741.63;5004230;28;120200;-71
2022/08/29 03:03:00;;;;;;;24.48;16.20;;;13.70;99.90;;;14.68;100.00;98738.53;5002602;28;119692;-72
2022/08/29 03:05:33;;;;;;;25.55;16.58;;;13.70;99.90;;;14.66;100.00;98741.63;5002339;28;130070;-71
2022/08/29 03:08:05;;;;;;;28.02;17.38;;;13.70;99.90;;;14.59;100.00;98738.69;5000713;28;129782;-71
2022/08/29 03:10:35;;;;;;;24.08;17.67;;;13.70;99.90;;;14.62;100.00;98748.94;5017879;28;119650;-71
2022/08/29 03:13:03;;;;;;;26.50;17.50;;;13.70;99.90;;;14.65;100.00;98748.22;5004121;28;118857;-71
2022/08/29 03:15:32;;;;;;;26.60;17.00;;;13.70;99.90;;;14.69;100.00;98751.81;5012273;28;131075;-70
2022/08/29 03:18:03;;;;;;;26.52;16.50;;;13.80;99.90;;;14.70;100.00;98747.94;5021016;28;130170;-70
2022/08/29 03:20:35;;;;;;;26.00;17.45;;;13.70;99.90;;;14.67;100.00;98751.38;5020231;28;122200;-71
2022/08/29 03:23:05;;;;;;;25.63;16.92;;;13.80;99.90;;;14.62;100.00;98743.47;5022010;28;122566;-70
2022/08/29 03:25:34;;;;;;;24.33;17.13;;;13.80;99.90;;;14.65;100.00;98744.69;5020893;28;131208;-71
2022/08/29 03:28:04;;;;;;;26.90;17.27;;;13.80;99.90;;;14.66;100.00;98746.28;5021311;28;131110;-70
2022/08/29 03:30:33;;;;;;;25.50;17.08;;;13.80;99.90;;;14.67;100.00;98745.13;5021374;28;119797;-71
2022/08/29 03:33:04;;;;;;;25.23;17.48;;;13.80;99.90;;;14.73;100.00;98747.22;5021774;28;119677;-72
2022/08/29 03:35:33;;;;;;;28.00;17.88;;;13.80;99.90;;;14.81;100.00;98748.16;5020729;28;130130;-71
2022/08/29 03:38:01;;;;;;;26.17;18.30;;;13.80;99.90;;;14.88;100.00;98742.03;5018270;28;129978;-71
2022/08/29 03:40:30;;;;;;;29.60;16.52;;;13.90;99.90;;;14.81;100.00;98756.34;5020564;28;120025;-73
2022/08/29 03:42:59;;;;;;;25.30;17.05;;;13.90;99.90;;;14.80;100.00;98752.03;5021217;28;119863;-71
2022/08/29 03:45:28;;;;;;;27.60;17.92;;;13.90;99.90;;;14.84;100.00;98752.13;5019500;28;130070;-71
2022/08/29 03:47:57;;;;;;;25.30;16.52;;;14.00;99.90;;;14.94;100.00;98757.00;5019088;28;130270;-72
2022/08/29 03:50:26;;;;;;;24.58;17.15;;;14.00;99.90;;;15.07;100.00;98761.19;5022671;28;119474;-72
2022/08/29 03:52:55;;;;;;;23.23;16.25;;;14.10;99.90;;;15.14;100.00;98759.75;5021273;28;119609;-72
2022/08/29 03:55:23;;;;;;;20.90;16.05;;;14.20;99.90;;;15.24;100.00;98753.72;5020782;28;129953;-74
2022/08/29 03:57:54;;;;;;;25.23;16.25;;;14.30;99.90;;;15.35;100.00;98749.25;5020415;28;129651;-73
2022/08/29 04:00:23;;;;;;;24.15;16.92;;;14.40;99.90;;;15.48;100.00;98747.13;5023499;28;120146;-73
2022/08/29 04:02:52;;;;;;;25.30;16.73;;;14.50;99.90;;;15.60;100.00;98748.91;5020798;28;119900;-73
2022/08/29 04:05:21;;;;;;;23.05;16.67;;;14.60;99.90;;;15.69;100.00;98752.22;5020475;28;130043;-74
2022/08/29 04:07:54;;;;;;;24.00;16.70;;;14.60;99.90;;;15.77;100.00;98737.53;5020226;28;129747;-73
2022/08/29 04:10:26;;;;;;;23.95;17.35;;;14.80;99.90;;;15.85;100.00;98743.91;5020084;28;122652;-73
2022/08/29 04:12:54;;;;;;;23.58;15.90;;;14.90;99.90;;;15.86;100.00;98747.41;5020435;28;121810;-73
2022/08/29 04:15:24;;;;;;;24.58;15.60;;;14.80;99.90;;;15.87;100.00;98746.28;5020147;28;129958;-72
2022/08/29 04:17:54;;;;;;;24.90;16.27;;;14.90;99.90;;;15.98;100.00;98741.75;5019669;28;129424;-72
2022/08/29 04:20:25;;;;;;;24.17;16.67;;;15.00;99.90;;;16.06;100.00;98737.19;5023294;28;118924;-71
2022/08/29 04:22:57;;;;;;;23.13;15.73;;;15.10;99.90;;;16.23;100.00;98746.84;5020439;28;119447;-72
2022/08/29 04:25:34;;;;;;;21.73;15.65;;;15.30;99.90;;;16.42;100.00;98752.22;5020299;28;130183;-73
2022/08/29 04:28:03;;;;;;;;;;;15.50;99.90;;;16.59;100.00;98736.41;5022829;28;128463;-72
2022/08/29 04:30:32;;;;;;;26.70;15.52;;;15.70;99.90;;;16.81;100.00;98752.00;5021044;28;119593;-72
2022/08/29 04:33:01;;;;;;;22.88;15.05;;;15.80;99.90;;;16.94;100.00;98751.75;5020436;28;119562;-73
2022/08/29 04:35:30;;;;;;;21.30;15.52;;;16.00;99.90;;;17.02;100.00;98747.97;5018927;28;129957;-72
2022/08/29 04:38:01;;;;;;;23.83;14.35;;;16.10;99.90;;;17.10;100.00;98749.63;5019964;28;129765;-72
2022/08/29 04:40:29;;;;;;;22.25;15.02;;;16.20;99.90;;;17.24;100.00;98747.03;5020832;28;119646;-74
2022/08/29 04:42:59;;;;;;;21.42;14.50;;;16.30;99.90;;;17.31;98.70;98742.81;5019519;28;120781;-73
2022/08/29 04:45:27;;;;;;;21.63;14.98;;;16.30;99.90;;;17.38;98.40;98742.91;5019444;28;130169;-73
2022/08/29 04:47:56;;;;;;;25.65;14.65;;;16.40;99.90;;;17.58;97.27;98732.53;5019533;28;129902;-73
2022/08/29 04:50:25;;;;;;;22.70;15.60;;;16.50;99.90;;;17.76;95.73;98738.97;5020900;28;119586;-72
2022/08/29 04:52:56;;;;;;;23.15;14.68;;;16.70;99.90;;;17.92;94.30;98738.75;5020659;28;119984;-72
2022/08/29 04:55:28;;;;;;;18.55;13.52;;;16.80;99.90;;;18.08;93.14;98740.44;5018521;28;130481;-72
2022/08/29 04:57:56;;;;;;;24.02;15.30;;;16.90;99.90;;;18.19;92.49;98735.81;5019492;28;129588;-72
2022/08/29 05:00:29;;;;;;;21.80;14.48;;;17.10;99.90;;;18.34;92.06;98736.72;5021098;28;122719;-72
2022/08/29 05:02:58;;;;;;;24.30;14.90;;;17.20;99.90;;;18.29;92.49;98729.59;5020590;28;122237;-72
2022/08/29 05:05:27;;;;;;;26.88;15.18;;;17.20;99.90;;;18.31;94.19;98726.47;5019094;28;130022;-73
2022/08/29 05:07:56;;;;;;;20.67;13.82;;;17.20;99.90;;;18.37;94.14;98724.16;5019346;28;130159;-72
2022/08/29 05:10:27;;;;;;;21.13;13.70;;;17.30;99.90;;;18.60;91.92;98721.94;5020290;28;119414;-72
2022/08/29 05:12:56;;;;;;;19.65;13.80;;;17.60;99.90;;;18.49;90.87;98727.34;5020290;28;119939;-72
2022/08/29 05:15:25;;;;;;;19.40;14.27;;;17.50;99.90;;;18.68;90.35;98723.56;5019065;28;130076;-72
2022/08/29 05:17:53;;;;;;;21.92;12.93;;;17.60;99.10;;;18.92;89.25;98721.34;5019703;28;130191;-76
2022/08/29 05:20:22;;;;;;;22.45;13.93;;;17.80;93.00;;;18.99;88.37;98718.59;5019782;28;120848;-72
2022/08/29 05:22:51;;;;;;;20.02;13.68;;;17.80;93.00;;;19.07;88.20;98726.88;5020518;28;119475;-73
2022/08/29 05:25:19;;;;;;;20.60;13.90;;;17.90;93.10;;;19.28;87.02;98718.69;5018262;28;129981;-73
2022/08/29 05:27:50;;;;;;;22.30;13.00;;;18.10;79.30;;;19.48;86.11;98721.13;5018979;28;130092;-72
2022/08/29 05:30:19;;;;;;;23.75;14.60;;;18.20;74.30;;;19.57;84.94;98721.50;5020077;28;119762;-72
2022/08/29 05:32:48;;;;;;;23.52;13.25;;;18.20;63.50;;;19.53;84.98;98723.47;5018582;28;119192;-72
2022/08/29 05:35:17;;;;;;;18.65;13.07;;;18.20;70.10;;;19.67;84.36;98709.72;5019392;28;129980;-72
2022/08/29 05:37:45;;;;;;;20.02;13.88;;;18.40;54.20;;;19.78;83.95;98718.03;5020748;28;129154;-72
2022/08/29 05:40:14;;;;;;;25.30;14.13;;;18.50;53.50;;;19.95;83.45;98721.97;5018896;28;119821;-72
2022/08/29 05:42:42;;;;;;;24.88;14.18;;;18.70;43.60;;;20.21;81.84;98719.97;5020237;28;119394;-73
2022/08/29 05:45:13;;;;;;;20.35;13.68;;;18.90;26.60;;;20.27;81.57;98719.19;5019053;28;130209;-72
2022/08/29 05:47:42;;;;;;;23.30;13.27;;;19.00;25.80;;;20.42;81.09;98722.69;5018524;28;130271;-72
2022/08/29 05:50:12;;;;;;;21.05;12.80;;;19.20;18.10;;;20.73;80.30;98725.03;5018732;28;121917;-72
2022/08/29 05:52:41;;;;;;;62.85;19.38;;;19.50;10.00;;;21.07;78.96;98725.28;5019719;28;121974;-72
2022/08/29 05:55:11;;;;;;;48.25;15.65;;;19.80;3.20;;;21.34;78.23;98722.75;5019015;28;130306;-73
2022/08/29 05:57:40;;;;;;;26.30;13.93;;;20.00;1.00;;;21.60;76.65;98733.66;5018367;28;129411;-73
2022/08/29 06:00:11;;;;;;;23.00;12.43;;;20.20;1.00;;;21.65;73.63;98741.53;5020690;28;118559;-73
2022/08/29 06:02:44;;;;;;;18.70;11.32;;;20.30;1.00;;;21.65;72.38;98736.03;5021514;28;118996;-73
2022/08/29 06:05:13;;;;;;;20.60;10.93;;;20.40;1.00;;;21.69;70.74;98725.72;5017990;27;130455;-74
2022/08/29 06:07:42;;;;;;;22.55;12.02;;;20.50;1.00;;;22.02;71.48;98718.78;5019383;28;130245;-73
2022/08/29 06:10:10;;;;;;;17.60;10.75;;;20.80;1.00;;;22.41;69.78;98725.16;5018818;28;120410;-73
2022/08/29 06:12:39;;;;;;;18.13;10.80;;;21.10;1.00;;;22.52;68.97;98722.28;5019495;28;119558;-72
2022/08/29 06:15:08;;;;;;;29.92;12.98;;;21.10;1.00;;;22.69;68.53;98714.97;5019826;28;129154;-72
2022/08/29 06:17:37;;;;;;;26.30;12.27;;;21.10;1.00;;;22.79;68.42;98730.66;5019222;28;129808;-72
2022/08/29 06:20:10;;;;;;;27.95;11.45;;;21.00;1.00;;;22.84;68.55;98727.44;5018719;28;120889;-72
2022/08/29 06:22:39;;;;;;;24.40;11.15;;;21.00;1.00;;;23.11;67.67;98727.53;5019714;28;119619;-71
2022/08/29 06:25:09;;;;;;;22.40;10.90;;;21.40;1.00;;;23.37;67.35;98719.66;5018273;28;129839;-73
2022/08/29 06:27:38;;;;;;;32.22;12.02;;;21.70;1.00;;;23.54;65.60;98730.91;5018778;28;129434;-72
2022/08/29 06:30:08;;;;;;;19.42;10.43;;;21.90;1.00;;;23.60;64.66;98730.00;5019101;28;121084;-74
2022/08/29 06:32:36;;;;;;;20.67;9.07;;;22.10;1.00;;;23.74;62.93;98728.25;5019599;28;119587;-70
2022/08/29 06:35:07;;;;;;;21.17;8.70;;;22.30;1.00;;;23.75;61.29;98729.78;5018392;28;130031;-72
2022/08/29 06:37:36;;;;;;;15.55;7.78;;;22.30;1.00;;;23.77;60.97;98732.94;5018325;28;129588;-73
2022/08/29 06:40:05;;;;;;;17.20;8.35;;;22.40;1.00;;;23.77;58.83;98732.94;5017901;28;122124;-71
2022/08/29 06:42:34;;;;;;;16.25;7.60;;;22.50;1.00;;;23.82;59.54;98738.00;5018775;28;122808;-72
2022/08/29 06:45:07;;;;;;;14.88;7.55;;;22.70;1.00;;;23.80;58.40;98734.88;5018146;28;130592;-72
2022/08/29 06:47:35;;;;;;;13.68;7.88;;;22.60;1.00;;;23.88;59.11;98738.34;5018330;28;130721;-72
2022/08/29 06:50:05;;;;;;;15.73;7.72;;;22.70;1.00;;;24.08;57.95;98741.19;5018894;28;120628;-71
2022/08/29 06:52:35;;;;;;;16.27;8.60;;;22.80;1.00;;;24.35;57.62;98741.88;5018495;28;119999;-73
2022/08/29 06:55:09;;;;;;;15.55;8.32;;;22.90;1.00;;;24.68;56.85;98744.91;5018139;28;129584;-76
2022/08/29 06:57:41;;;;;;;14.48;6.40;;;23.10;1.00;;;24.96;53.11;98750.31;5018678;28;129793;-73
2022/08/29 07:00:13;;;;;;;15.10;6.57;;;23.20;1.00;;;24.99;52.49;98752.22;5019305;28;119391;-72
2022/08/29 07:02:41;;;;;;;16.15;7.13;;;23.40;1.00;;;25.02;51.83;98746.59;5017588;28;119400;-71
2022/08/29 07:05:11;;;;;;;14.25;6.43;;;23.60;1.00;;;25.34;50.98;98756.28;5017058;28;130136;-72
2022/08/29 07:07:42;;;;;;;13.90;6.75;;;23.60;1.00;;;25.52;51.25;98757.88;5018018;28;130010;-72
2022/08/29 07:10:13;;;;;;;14.93;7.30;;;23.80;1.00;;;25.52;50.58;98757.88;5018890;28;119561;-71
2022/08/29 07:12:41;;;;;;;18.67;7.68;;;23.90;1.00;;;25.43;50.98;98764.00;5018949;28;119519;-71
2022/08/29 07:15:11;;;;;;;17.23;8.10;;;23.80;1.00;;;25.58;50.66;98759.69;5017399;28;129758;-72
2022/08/29 07:17:40;;;;;;;13.45;7.47;;;24.10;1.00;;;25.87;50.76;98772.16;5019704;27;129668;-74
2022/08/29 07:20:10;;;;;;;17.02;7.97;;;24.40;1.00;;;26.16;49.66;98764.72;5024209;28;119415;-73
2022/08/29 07:22:40;;;;;;;17.23;7.53;;;24.60;1.00;;;26.29;46.29;98772.38;5024321;28;119653;-72
2022/08/29 07:25:10;;;;;;;13.85;5.75;;;24.70;1.00;;;26.22;45.31;98769.75;5020939;28;130429;-71
2022/08/29 07:27:39;;;;;;;15.63;6.40;;;24.60;1.00;;;26.48;46.20;98757.53;5019590;28;129699;-72
2022/08/29 07:30:10;;;;;;;23.33;7.53;;;24.90;1.00;;;26.57;48.16;98758.91;5021156;28;122595;-75
2022/08/29 07:32:41;;;;;;;20.13;7.50;;;24.60;1.00;;;26.61;47.50;98754.03;5021449;28;122412;-71
2022/08/29 07:35:10;;;;;;;16.17;7.75;;;24.50;1.00;;;26.69;48.60;98755.44;5023530;28;128704;-72
2022/08/29 07:37:41;;;;;;;22.38;8.05;;;24.70;1.00;;;26.76;48.05;98760.81;5021886;28;129739;-71
2022/08/29 07:40:15;;;;;;;17.13;6.85;;;24.90;1.00;;;26.96;47.02;98757.06;5022069;28;119526;-72
2022/08/29 07:42:44;;;;;;;17.52;6.53;;;25.10;1.00;;;27.10;46.33;98751.13;5022139;28;119571;-71
2022/08/29 07:45:14;;;;;;;15.90;6.55;;;25.20;1.00;;;27.38;45.65;98754.31;5020642;28;130416;-72
2022/08/29 07:47:42;;;;;;;15.68;6.50;;;25.40;1.00;;;27.59;45.57;98753.63;5023294;28;129375;-71
2022/08/29 07:50:13;;;;;;;20.45;6.00;;;25.70;1.00;;;27.64;44.05;98748.75;5021930;28;119741;-74
2022/08/29 07:52:43;;;;;;;18.33;6.20;;;25.70;1.00;;;27.58;43.09;98752.09;5021953;28;119758;-72
2022/08/29 07:55:13;;;;;;;12.13;5.63;;;25.60;1.00;;;27.56;42.41;98748.94;5020485;28;129948;-70
2022/08/29 07:57:45;;;;;;;19.10;6.82;;;25.50;1.00;;;27.50;42.89;98755.53;5020350;28;129977;-76
2022/08/29 08:00:14;;;;;;;18.63;6.25;;;25.50;1.00;;;27.52;45.02;98751.09;5022785;28;120070;-70
2022/08/29 08:02:42;;;;;;;15.45;5.82;;;25.50;1.00;;;27.58;45.31;98752.09;5022015;28;119514;-74
2022/08/29 08:05:11;;;;;;;27.02;13.55;;;25.70;1.00;;;27.79;45.60;98761.78;5020897;28;129618;-71
2022/08/29 08:07:41;;;;;;;37.13;20.17;;;26.00;1.00;;;27.79;45.53;98761.00;5020196;28;129568;-71
2022/08/29 08:10:12;;;;;;;21.48;7.18;;;26.00;1.00;;;27.94;44.12;98756.53;5021725;28;119573;-72
2022/08/29 08:12:40;;;;;;;17.98;6.50;;;25.80;1.00;;;27.93;44.65;98768.13;5022345;28;119595;-71
2022/08/29 08:15:10;;;;;;;18.98;7.82;;;25.90;1.00;;;27.98;43.49;98762.78;5021047;28;129803;-72
2022/08/29 08:17:38;;;;;;;16.15;6.97;;;25.90;1.00;;;28.18;42.92;98756.19;5018819;28;129921;-73
2022/08/29 08:20:09;;;;;;;17.83;7.00;;;26.10;1.00;;;28.21;42.97;98762.88;5020075;28;121915;-71
2022/08/29 08:22:38;;;;;;;13.13;6.75;;;26.00;1.00;;;28.15;43.39;98762.66;5021908;28;121948;-71
2022/08/29 08:25:08;;;;;;;11.55;5.60;;;26.20;1.00;;;28.20;42.73;98753.72;5020734;28;130310;-70
2022/08/29 08:27:38;;;;;;;8.68;5.68;;;26.20;1.00;;;28.24;43.04;98757.16;5020687;27;129282;-75
2022/08/29 08:30:08;;;;;;;18.17;6.75;;;26.40;1.00;;;28.52;42.39;98763.00;5020417;28;119826;-71
2022/08/29 08:32:37;;;;;;;15.95;7.20;;;26.50;1.00;;;28.40;41.93;98753.44;5021348;28;119659;-71
2022/08/29 08:35:07;;;;;;;10.43;5.40;;;26.20;1.00;;;28.46;41.80;98757.22;5021005;28;130543;-71
2022/08/29 08:37:36;;;;;;;14.50;5.53;;;26.30;1.00;;;28.57;41.53;98762.41;5021258;28;130356;-73
2022/08/29 08:40:06;;;;;;;10.57;4.50;;;26.40;1.00;;;27.84;40.31;98763.22;5020590;28;119968;-69
2022/08/29 08:42:42;;;;;;;10.00;4.85;;;26.30;1.00;;;27.93;40.18;98763.31;5021369;28;119488;-69
2022/08/29 08:45:12;;;;;;;11.88;4.68;;;26.10;1.00;;;27.85;41.12;98759.22;5018665;28;131023;-71
2022/08/29 08:47:47;;;;;;;8.95;4.63;;;26.40;1.00;;;28.14;39.91;98758.28;5005052;28;128354;-72
2022/08/29 08:50:24;;;;;;;14.45;5.90;;;26.60;1.00;;;28.50;42.09;98765.44;5020777;28;119538;-71
2022/08/29 08:52:58;;;;;;;12.98;4.90;;;26.80;1.00;;;28.49;39.61;98761.13;5021096;28;119299;-70
2022/08/29 08:55:37;;;;;;;10.77;3.45;;;26.60;1.00;;;28.59;38.10;98754.41;5020517;28;129911;-71
2022/08/29 08:58:18;;;;;;;11.35;4.60;;;26.50;1.00;;;28.64;39.02;98756.63;5021774;28;128814;-71
2022/08/29 09:00:51;;;;;;;9.43;6.22;;;26.40;1.00;;;28.63;39.91;98755.06;5022844;28;119603;-70
2022/08/29 09:04:09;;;;;;;10.20;4.40;;;26.80;1.00;;;28.72;39.76;98761.94;5021481;28;119933;-70
2022/08/29 09:07:01;;;;;;;11.05;4.47;;;27.00;1.00;;;28.83;39.52;98751.19;5016035;27;130565;-69
2022/08/29 09:09:45;;;;;;;11.27;4.10;;;26.70;1.00;;;28.54;40.18;98766.13;5004617;28;128777;-73
2022/08/29 09:12:28;;;;;;;11.25;4.85;;;26.80;1.00;;;28.24;39.75;98757.16;5018834;28;121922;-71
2022/08/29 09:15:08;;;;;;;11.35;4.63;;;26.80;1.00;;;28.15;39.71;98762.66;5018543;28;121823;-69
2022/08/29 09:17:43;;;;;;;12.10;4.68;;;26.80;1.00;;;28.26;40.17;98759.50;5019393;28;130391;-70
2022/08/29 09:20:18;;;;;;;20.00;5.20;;;26.80;1.00;;;28.65;39.28;98763.75;5020281;28;129498;-75
2022/08/29 09:23:01;;;;;;;10.93;5.35;;;27.00;1.00;;;28.78;38.71;98760.91;5019825;28;119888;-71
2022/08/29 09:25:34;;;;;;;13.05;4.18;;;27.20;1.00;;;29.15;38.10;98765.97;5019969;28;120229;-70
2022/08/29 09:28:07;;;;;;;10.25;5.45;;;27.50;1.00;;;29.61;37.16;98774.63;5018968;28;130000;-72
2022/08/29 09:30:40;;;;;;;14.13;4.80;;;27.80;1.00;;;29.79;36.88;98767.53;5020382;28;129762;-71
2022/08/29 09:33:11;;;;;;;11.30;4.30;;;27.60;1.00;;;28.58;38.10;98766.81;5019609;28;120315;-72
2022/08/29 09:35:44;;;;;;;10.07;3.88;;;26.90;1.00;;;28.21;39.15;98763.66;5019470;28;119904;-71
2022/08/29 09:38:23;;;;;;;19.77;4.70;;;26.80;1.00;;;28.46;39.10;98762.78;5018181;28;130353;-71
2022/08/29 09:40:56;;;;;;;15.30;4.90;;;26.90;1.00;;;28.94;39.36;98759.94;5019145;27;129763;-70
2022/08/29 09:43:31;;;;;;;13.35;4.28;;;27.50;1.00;;;29.42;37.17;98773.75;5021849;28;120139;-73
2022/08/29 09:46:24;;;;;;;12.30;3.50;;;27.70;1.00;;;28.88;37.45;98763.78;5019312;28;119540;-70
2022/08/29 09:49:11;;;;;;;13.52;4.75;;;27.20;1.00;;;28.89;37.47;98777.28;5018393;27;130402;-73
2022/08/29 09:51:43;;;;;;;14.95;4.70;;;27.40;1.00;;;28.80;37.62;98763.25;5021301;28;128490;-72
2022/08/29 09:54:17;;;;;;;10.73;3.90;;;27.40;1.00;;;28.85;37.42;98765.47;5018727;28;119805;-70
2022/08/29 09:56:54;;;;;;;13.00;3.83;;;27.60;1.00;;;28.69;37.91;98763.63;5020300;28;119976;-71
2022/08/29 09:59:32;;;;;;;10.88;4.63;;;27.40;1.00;;;28.94;37.05;98757.16;5019293;28;129818;-70
2022/08/29 10:02:23;;;;;;;12.38;4.35;;;27.40;1.00;;;28.77;37.79;98758.59;5018584;28;129550;-67
2022/08/29 10:04:56;;;;;;;12.27;4.40;;;27.50;1.00;;;29.01;37.84;98759.66;5016995;28;121781;-70
2022/08/29 10:07:28;;;;;;;10.00;4.82;;;27.60;1.00;;;28.82;38.25;98758.00;5019017;28;121490;-71
2022/08/29 10:10:03;;;;;;;13.50;4.15;;;27.50;1.00;;;29.09;37.69;98757.38;5018807;28;129825;-71
2022/08/29 10:12:51;;;;;;;13.18;4.63;;;27.50;1.00;;;29.59;36.73;98754.72;5019183;28;130568;-70
2022/08/29 10:15:27;;;;;;;11.50;4.22;;;27.60;1.00;;;29.88;36.07;98753.63;5018447;28;119781;-70
2022/08/29 10:18:23;;;;;;;13.43;4.30;;;27.90;1.00;;;30.04;35.57;98756.13;5021124;28;119082;-73
2022/08/29 10:21:12;;;;;;;14.40;4.70;;;28.00;1.00;;;30.18;35.86;98753.97;5018927;28;130236;-71
2022/08/29 10:23:58;;;;;;;20.45;6.53;;;27.70;1.00;;;30.04;36.07;98755.34;5019013;28;130798;-73